createdAt,value
2019-02-07T00:01:33.599Z,77.70
2019-02-07T00:04:01.709Z,79.10
2019-02-07T00:06:29.568Z,57.50
2019-02-07T00:08:59.390Z,60.43
2019-02-07T00:11:27.625Z,53.60
2019-02-07T00:13:55.279Z,53.30
2019-02-07T00:16:23.141Z,59.60
2019-02-07T00:18:51.030Z,62.53
2019-02-07T00:21:18.807Z,52.30
2019-02-07T00:23:46.664Z,53.93
2019-02-07T00:26:14.462Z,63.90
2019-02-07T00:28:42.849Z,55.40
2019-02-07T00:31:11.037Z,53.67
2019-02-07T00:33:41.357Z,55.63
2019-02-07T00:36:09.511Z,90.47
2019-02-07T00:38:37.220Z,114.03
2019-02-07T00:41:06.831Z,89.77
2019-02-07T00:43:34.129Z,48.87
2019-02-07T00:46:02.347Z,162.30
2019-02-07T00:48:30.799Z,99.37
2019-02-07T00:50:58.839Z,52.50
2019-02-07T00:53:26.714Z,68.93
2019-02-07T00:55:55.340Z,51.57
2019-02-07T00:58:22.883Z,51.73
2019-02-07T01:00:50.431Z,47.63
2019-02-07T01:03:18.274Z,51.63
2019-02-07T01:05:45.747Z,52.00
2019-02-07T01:08:13.554Z,53.00
2019-02-07T01:10:41.902Z,49.70
2019-02-07T01:13:09.719Z,51.05
2019-02-07T01:15:37.570Z,59.37
2019-02-07T01:18:05.697Z,62.57
2019-02-07T01:20:33.247Z,56.30
2019-02-07T01:23:01.127Z,49.10
2019-02-07T01:25:29.014Z,57.83
2019-02-07T01:27:56.631Z,51.10
2019-02-07T01:30:24.929Z,59.87
2019-02-07T01:32:53.271Z,53.10
2019-02-07T01:35:21.328Z,57.38
2019-02-07T01:37:50.091Z,61.73
2019-02-07T01:40:17.741Z,52.00
2019-02-07T01:42:45.476Z,45.17
2019-02-07T01:45:15.550Z,56.10
2019-02-07T01:47:43.355Z,54.80
2019-02-07T01:50:11.890Z,55.83
2019-02-07T01:52:40.335Z,48.30
2019-02-07T01:55:09.267Z,53.00
2019-02-07T01:57:37.816Z,48.67
2019-02-07T02:00:09.236Z,54.10
2019-02-07T02:02:37.132Z,49.10
2019-02-07T02:05:06.227Z,50.30
2019-02-07T02:07:33.750Z,48.87
2019-02-07T02:10:01.655Z,53.40
2019-02-07T02:12:30.243Z,47.23
2019-02-07T02:14:57.987Z,53.70
2019-02-07T02:17:25.614Z,53.03
2019-02-07T02:19:53.192Z,55.57
2019-02-07T02:22:20.774Z,50.37
2019-02-07T02:24:48.298Z,63.40
2019-02-07T02:27:16.548Z,50.13
2019-02-07T02:29:45.000Z,64.43
2019-02-07T02:32:12.525Z,54.77
2019-02-07T02:34:40.542Z,51.83
2019-02-07T02:37:08.388Z,46.67
2019-02-07T02:39:35.907Z,50.33
2019-02-07T02:42:04.233Z,49.70
2019-02-07T02:44:32.717Z,53.40
2019-02-07T02:47:00.832Z,48.33
2019-02-07T02:49:29.232Z,42.80
2019-02-07T02:51:57.763Z,47.47
2019-02-07T02:54:34.523Z,45.07
2019-02-07T02:57:04.786Z,45.63
2019-02-07T02:59:33.983Z,50.28
2019-02-07T03:02:19.757Z,49.63
2019-02-07T03:05:00.603Z,60.00
2019-02-07T03:07:38.652Z,48.13
2019-02-07T03:10:30.234Z,47.98
2019-02-07T03:13:25.993Z,42.57
2019-02-07T03:16:04.868Z,44.67
2019-02-07T03:18:52.268Z,44.13
2019-02-07T03:21:39.653Z,49.83
2019-02-07T03:24:26.258Z,45.73
2019-02-07T03:27:19.791Z,47.78
2019-02-07T03:30:16.051Z,50.45
2019-02-07T03:33:06.664Z,44.70
2019-02-07T03:35:58.019Z,45.83
2019-02-07T03:38:40.946Z,49.57
2019-02-07T03:41:20.210Z,45.77
2019-02-07T03:44:16.365Z,54.40
2019-02-07T03:47:03.930Z,51.13
2019-02-07T03:49:43.047Z,48.80
2019-02-07T03:52:29.052Z,50.23
2019-02-07T03:55:16.124Z,42.58
2019-02-07T03:58:09.980Z,49.38
2019-02-07T04:01:00.417Z,45.00
2019-02-07T04:03:53.571Z,50.73
2019-02-07T04:06:46.543Z,52.98
2019-02-07T04:09:42.933Z,47.50
2019-02-07T04:12:35.822Z,54.03
2019-02-07T04:15:30.904Z,49.80
2019-02-07T04:18:19.195Z,48.53
2019-02-07T04:21:04.852Z,55.40
2019-02-07T04:23:54.980Z,54.07
2019-02-07T04:26:48.072Z,52.03
2019-02-07T04:29:34.806Z,57.50
2019-02-07T04:32:33.895Z,57.67
2019-02-07T04:35:20.794Z,55.03
2019-02-07T04:38:06.655Z,52.47
2019-02-07T04:40:43.920Z,49.18
2019-02-07T04:43:20.521Z,106.75
2019-02-07T04:46:26.707Z,218.67
2019-02-07T04:49:24.395Z,136.30
2019-02-07T04:52:05.632Z,47.90
2019-02-07T04:54:43.852Z,59.35
2019-02-07T04:57:49.171Z,61.87
2019-02-07T05:00:31.644Z,50.92
2019-02-07T05:03:24.880Z,61.17
2019-02-07T05:06:15.348Z,45.80
2019-02-07T05:08:59.317Z,55.27
2019-02-07T05:11:53.194Z,54.43
2019-02-07T05:14:40.255Z,48.53
2019-02-07T05:17:36.240Z,54.23
2019-02-07T05:20:31.210Z,50.83
2019-02-07T05:23:18.851Z,60.80
2019-02-07T05:26:04.524Z,66.23
2019-02-07T05:28:47.809Z,65.97
2019-02-07T05:31:40.847Z,69.22
2019-02-07T05:34:30.602Z,64.55
2019-02-07T05:37:07.814Z,57.17
2019-02-07T05:40:02.653Z,58.97
2019-02-07T05:42:48.945Z,51.95
2019-02-07T05:45:34.676Z,53.85
2019-02-07T05:48:25.062Z,50.70
2019-02-07T05:51:10.743Z,54.73
2019-02-07T05:54:03.888Z,48.90
2019-02-07T05:56:50.379Z,50.58
2019-02-07T05:59:37.529Z,52.63
2019-02-07T06:02:26.325Z,96.85
2019-02-07T06:05:13.172Z,68.75
2019-02-07T06:07:52.244Z,73.17
2019-02-07T06:10:51.064Z,50.70
2019-02-07T06:13:43.675Z,58.40
2019-02-07T06:16:24.139Z,55.70
2019-02-07T06:19:10.035Z,52.13
2019-02-07T06:22:09.363Z,45.53
2019-02-07T06:25:05.179Z,58.00
2019-02-07T06:27:50.189Z,64.60
2019-02-07T06:30:37.963Z,53.35
2019-02-07T06:33:23.583Z,74.60
2019-02-07T06:36:11.341Z,51.73
2019-02-07T06:39:03.350Z,58.28
2019-02-07T06:41:53.163Z,84.77
2019-02-07T06:44:36.823Z,72.75
2019-02-07T06:47:23.864Z,70.30
2019-02-07T06:50:23.208Z,73.22
2019-02-07T06:52:59.830Z,62.43
2019-02-07T06:55:49.046Z,60.87
2019-02-07T06:58:35.179Z,53.07
2019-02-07T07:01:13.180Z,52.08
2019-02-07T07:04:05.633Z,61.00
2019-02-07T07:06:52.061Z,58.68
2019-02-07T07:09:36.352Z,61.10
2019-02-07T07:12:30.160Z,50.78
2019-02-07T07:15:32.550Z,49.60
2019-02-07T07:18:22.475Z,48.33
2019-02-07T07:21:18.759Z,53.35
2019-02-07T07:24:04.140Z,57.30
2019-02-07T07:26:49.912Z,50.03
2019-02-07T07:29:36.995Z,55.95
2019-02-07T07:32:26.297Z,58.58
2019-02-07T07:35:16.856Z,50.70
2019-02-07T07:38:04.309Z,52.48
2019-02-07T07:40:50.575Z,46.70
2019-02-07T07:43:31.274Z,52.62
2019-02-07T07:46:19.852Z,50.28
2019-02-07T07:48:57.098Z,51.00
2019-02-07T07:51:44.806Z,51.95
2019-02-07T07:54:31.896Z,51.70
2019-02-07T07:57:25.098Z,48.70
2019-02-07T08:00:20.099Z,56.98
2019-02-07T08:03:12.843Z,64.62
2019-02-07T08:06:10.950Z,47.27
2019-02-07T08:09:04.704Z,57.48
2019-02-07T08:11:45.022Z,54.20
2019-02-07T08:14:30.992Z,47.77
2019-02-07T08:17:16.458Z,48.58
2019-02-07T08:19:58.099Z,59.85
2019-02-07T08:22:43.998Z,51.55
2019-02-07T08:25:23.546Z,55.43
2019-02-07T08:28:13.951Z,46.10
2019-02-07T08:31:01.014Z,52.03
2019-02-07T08:33:46.212Z,51.33
2019-02-07T08:36:39.911Z,53.30
2019-02-07T08:39:23.528Z,55.63
2019-02-07T08:42:16.702Z,61.28
2019-02-07T08:44:59.844Z,67.15
2019-02-07T08:47:58.178Z,53.95
2019-02-07T08:50:42.494Z,60.60
2019-02-07T08:53:28.421Z,69.67
2019-02-07T08:56:09.991Z,57.17
2019-02-07T08:58:56.052Z,62.80
2019-02-07T09:01:48.687Z,56.50
2019-02-07T09:04:34.191Z,54.17
2019-02-07T09:07:19.722Z,63.93
2019-02-07T09:10:21.769Z,51.30
2019-02-07T09:13:07.280Z,51.77
2019-02-07T09:15:56.891Z,119.77
2019-02-07T09:18:43.080Z,74.45
2019-02-07T09:21:42.637Z,60.20
2019-02-07T09:24:32.835Z,55.23
2019-02-07T09:27:34.807Z,58.77
2019-02-07T09:30:21.215Z,65.00
2019-02-07T09:33:07.406Z,63.40
2019-02-07T09:36:04.938Z,76.53
2019-02-07T09:39:01.463Z,170.90
2019-02-07T09:41:54.299Z,144.53
2019-02-07T09:44:31.741Z,117.97
2019-02-07T09:47:07.075Z,79.32
2019-02-07T09:49:47.123Z,58.77
2019-02-07T09:52:37.429Z,71.17
2019-02-07T09:55:28.600Z,65.22
2019-02-07T09:58:14.570Z,57.58
2019-02-07T10:01:04.098Z,68.33
2019-02-07T10:03:51.534Z,73.55
2019-02-07T10:06:28.930Z,66.60
2019-02-07T10:09:05.495Z,57.07
2019-02-07T10:12:01.218Z,65.93
2019-02-07T10:14:57.352Z,63.57
2019-02-07T10:17:45.046Z,55.63
2019-02-07T10:20:24.471Z,72.92
2019-02-07T10:23:10.595Z,63.50
2019-02-07T10:26:01.225Z,81.60
2019-02-07T10:28:47.642Z,70.67
2019-02-07T10:31:33.629Z,59.20
2019-02-07T10:34:20.701Z,127.03
2019-02-07T10:36:56.460Z,126.57
2019-02-07T10:39:46.138Z,123.77
2019-02-07T10:42:53.151Z,72.17
2019-02-07T10:45:44.091Z,71.60
2019-02-07T10:48:32.140Z,70.37
2019-02-07T10:51:18.506Z,60.47
2019-02-07T10:54:11.502Z,60.70
2019-02-07T10:56:59.213Z,57.50
2019-02-07T10:59:46.070Z,70.90
2019-02-07T11:02:30.839Z,68.70
2019-02-07T11:05:18.011Z,71.75
2019-02-07T11:08:20.862Z,59.83
2019-02-07T11:11:23.123Z,59.27
2019-02-07T11:14:13.287Z,101.53
2019-02-07T11:17:12.326Z,84.27
2019-02-07T11:20:03.062Z,69.03
2019-02-07T11:23:01.788Z,93.83
2019-02-07T11:25:49.358Z,53.30
2019-02-07T11:28:34.794Z,63.80
2019-02-07T11:31:28.196Z,60.70
2019-02-07T11:34:13.889Z,64.33
2019-02-07T11:36:57.984Z,58.17
2019-02-07T11:39:44.248Z,66.80
2019-02-07T11:42:31.471Z,64.97
2019-02-07T11:45:21.864Z,68.53
2019-02-07T11:48:01.327Z,68.53
2019-02-07T11:50:46.922Z,77.93
2019-02-07T11:53:40.579Z,68.03
2019-02-07T11:56:15.505Z,64.33
2019-02-07T11:59:01.267Z,58.70
2019-02-07T12:01:40.111Z,60.60
2019-02-07T12:04:25.414Z,72.97
2019-02-07T12:07:20.662Z,65.47
2019-02-07T12:10:13.967Z,63.20
2019-02-07T12:12:48.216Z,68.17
2019-02-07T12:15:38.145Z,74.87
2019-02-07T12:18:23.892Z,67.93
2019-02-07T12:21:05.670Z,147.73
2019-02-07T12:24:01.956Z,156.83
2019-02-07T12:26:36.902Z,119.43
2019-02-07T12:29:23.289Z,72.70
2019-02-07T12:32:10.631Z,67.40
2019-02-07T12:34:59.607Z,66.27
2019-02-07T12:37:47.933Z,62.47
2019-02-07T12:40:34.063Z,77.30
2019-02-07T12:43:27.567Z,67.93
2019-02-07T12:46:13.361Z,65.90
2019-02-07T12:49:09.832Z,71.63
2019-02-07T12:52:03.280Z,67.70
2019-02-07T12:55:05.779Z,70.17
2019-02-07T12:58:05.013Z,80.20
2019-02-07T13:01:12.168Z,158.10
2019-02-07T13:04:02.217Z,89.33
2019-02-07T13:07:06.789Z,69.07
2019-02-07T13:09:41.815Z,76.40
2019-02-07T13:12:30.142Z,94.13
2019-02-07T13:15:17.483Z,74.17
2019-02-07T13:18:04.582Z,85.10
2019-02-07T13:20:46.865Z,77.47
2019-02-07T13:23:32.800Z,98.73
2019-02-07T13:26:23.224Z,86.83
2019-02-07T13:29:07.067Z,101.47
2019-02-07T13:31:52.738Z,122.17
2019-02-07T13:34:40.118Z,131.23
2019-02-07T13:37:39.470Z,161.00
2019-02-07T13:40:27.222Z,111.10
2019-02-07T13:43:12.974Z,211.17
2019-02-07T13:46:08.642Z,168.63
2019-02-07T13:49:10.708Z,190.43
2019-02-07T13:51:57.876Z,116.67
2019-02-07T13:54:47.884Z,123.53
2019-02-07T13:57:41.351Z,111.83
2019-02-07T14:00:28.076Z,98.67
2019-02-07T14:03:12.092Z,114.83
2019-02-07T14:05:57.909Z,72.37
2019-02-07T14:08:50.447Z,68.87
2019-02-07T14:11:42.952Z,74.90
2019-02-07T14:14:33.292Z,72.17
2019-02-07T14:17:23.123Z,74.90
2019-02-07T14:20:03.860Z,78.77
2019-02-07T14:22:55.355Z,122.27
2019-02-07T14:25:48.312Z,95.90
2019-02-07T14:28:41.515Z,77.90
2019-02-07T14:31:14.842Z,78.27
2019-02-07T14:34:04.916Z,103.77
2019-02-07T14:37:00.871Z,141.23
2019-02-07T14:39:46.379Z,85.73
2019-02-07T14:42:36.530Z,79.97
2019-02-07T14:45:18.059Z,97.50
2019-02-07T14:47:46.028Z,84.67
2019-02-07T14:50:15.134Z,74.80
2019-02-07T14:52:42.994Z,70.23
2019-02-07T14:55:11.440Z,72.07
2019-02-07T14:57:39.651Z,74.67
2019-02-07T15:00:09.035Z,75.43
2019-02-07T15:02:38.983Z,70.83
2019-02-07T15:05:07.775Z,72.50
2019-02-07T15:07:36.000Z,102.77
2019-02-07T15:10:05.722Z,76.37
2019-02-07T15:12:35.952Z,76.40
2019-02-07T15:15:05.077Z,79.20
2019-02-07T15:17:33.591Z,82.83
2019-02-07T15:20:01.628Z,85.80
2019-02-07T15:22:29.484Z,78.47
2019-02-07T15:24:57.436Z,79.50
2019-02-07T15:27:25.270Z,157.47
2019-02-07T15:29:53.616Z,94.53
2019-02-07T15:32:21.392Z,87.87
2019-02-07T15:34:49.664Z,78.43
2019-02-07T15:37:17.637Z,91.13
2019-02-07T15:39:46.110Z,80.37
2019-02-07T15:42:13.804Z,83.80
2019-02-07T15:44:41.959Z,76.17
2019-02-07T15:47:10.730Z,86.13
2019-02-07T15:49:38.000Z,82.53
2019-02-07T15:52:06.020Z,84.30
2019-02-07T15:54:34.180Z,72.53
2019-02-07T15:57:02.356Z,81.13
2019-02-07T15:59:35.193Z,84.17
2019-02-07T16:02:27.944Z,74.20
2019-02-07T16:04:55.857Z,88.50
2019-02-07T16:07:23.850Z,112.00
2019-02-07T16:09:51.712Z,81.37
2019-02-07T16:12:20.115Z,65.30
2019-02-07T16:14:48.158Z,76.67
2019-02-07T16:17:16.346Z,83.80
2019-02-07T16:19:44.174Z,96.57
2019-02-07T16:22:11.511Z,83.60
2019-02-07T16:24:39.631Z,82.53
2019-02-07T16:27:07.464Z,77.73
2019-02-07T16:29:35.634Z,91.23
2019-02-07T16:32:03.741Z,132.80
2019-02-07T16:34:31.484Z,91.93
2019-02-07T16:36:59.052Z,76.97
2019-02-07T16:39:27.014Z,80.90
2019-02-07T16:42:05.833Z,68.10
2019-02-07T16:44:27.579Z,85.30
2019-02-07T16:46:55.274Z,70.70
2019-02-07T16:49:23.566Z,73.53
2019-02-07T16:51:51.435Z,80.60
2019-02-07T16:54:19.770Z,90.60
2019-02-07T16:56:48.348Z,93.43
2019-02-07T16:59:16.699Z,144.30
2019-02-07T17:01:45.213Z,82.50
2019-02-07T17:04:16.751Z,83.37
2019-02-07T17:06:45.765Z,91.37
2019-02-07T17:09:23.531Z,112.53
2019-02-07T17:11:51.140Z,96.00
2019-02-07T17:14:19.051Z,98.93
2019-02-07T17:16:47.959Z,101.70
2019-02-07T17:19:15.907Z,97.43
2019-02-07T17:21:43.490Z,99.33
2019-02-07T17:24:12.267Z,109.60
2019-02-07T17:26:53.789Z,77.97
2019-02-07T17:29:22.922Z,77.47
2019-02-07T17:31:51.249Z,78.70
2019-02-07T17:34:20.080Z,82.43
2019-02-07T17:36:47.761Z,83.03
2019-02-07T17:39:16.316Z,87.80
2019-02-07T17:41:44.545Z,86.77
2019-02-07T17:44:12.699Z,88.07
2019-02-07T17:46:40.747Z,81.27
2019-02-07T17:49:08.432Z,81.33
2019-02-07T17:51:36.304Z,96.40
2019-02-07T17:54:04.552Z,80.63
2019-02-07T17:56:33.324Z,85.77
2019-02-07T17:59:01.358Z,81.53
2019-02-07T18:01:29.727Z,89.17
2019-02-07T18:03:57.512Z,79.43
2019-02-07T18:06:25.290Z,83.17
2019-02-07T18:08:53.257Z,81.20
2019-02-07T18:11:21.687Z,71.33
2019-02-07T18:13:50.202Z,68.70
2019-02-07T18:16:18.811Z,63.67
2019-02-07T18:18:47.521Z,62.30
2019-02-07T18:21:18.077Z,60.37
2019-02-07T18:23:46.977Z,61.17
2019-02-07T18:26:15.591Z,76.10
2019-02-07T18:28:44.166Z,63.37
2019-02-07T18:31:12.375Z,58.57
2019-02-07T18:33:41.242Z,74.07
2019-02-07T18:36:09.333Z,62.67
2019-02-07T18:38:38.009Z,47.57
2019-02-07T18:41:06.695Z,53.97
2019-02-07T18:43:34.354Z,51.77
2019-02-07T18:46:01.966Z,50.67
